createdAt,value
2019-02-08T00:00:10.799Z,55.05
2019-02-08T00:06:22.492Z,54.36
2019-02-08T00:09:28.299Z,54.74
2019-02-08T00:12:34.300Z,55.11
2019-02-08T00:15:40.167Z,54.44
2019-02-08T00:18:46.061Z,55.16
2019-02-08T00:21:51.817Z,54.80
2019-02-08T00:24:57.568Z,54.43
2019-02-08T00:28:03.747Z,53.99
2019-02-08T00:31:09.623Z,53.70
2019-02-08T00:34:15.379Z,54.78
2019-02-08T00:37:21.172Z,54.48
2019-02-08T00:40:27.411Z,55.02
2019-02-08T00:43:35.050Z,55.83
2019-02-08T00:46:40.946Z,55.82
2019-02-08T00:49:46.715Z,55.58
2019-02-08T00:52:53.272Z,55.97
2019-02-08T00:55:59.244Z,56.88
2019-02-08T00:59:05.512Z,55.93
2019-02-08T01:02:11.362Z,55.65
2019-02-08T01:05:18.186Z,56.33
2019-02-08T01:08:24.518Z,56.03
2019-02-08T01:11:30.436Z,55.79
2019-02-08T01:14:36.315Z,56.60
2019-02-08T01:17:42.187Z,56.96
2019-02-08T01:20:47.968Z,56.20
2019-02-08T01:23:53.733Z,55.91
2019-02-08T01:26:59.612Z,56.64
2019-02-08T01:30:08.106Z,55.94
2019-02-08T01:33:14.058Z,55.93
2019-02-08T01:36:19.915Z,57.25
2019-02-08T01:39:25.681Z,56.55
2019-02-08T01:42:31.480Z,56.94
2019-02-08T01:45:37.570Z,57.80
2019-02-08T01:48:43.466Z,58.15
2019-02-08T01:51:49.227Z,57.69
2019-02-08T01:54:54.992Z,57.43
2019-02-08T01:58:00.882Z,58.16
2019-02-08T02:01:08.424Z,58.25
2019-02-08T02:04:14.413Z,57.45
2019-02-08T02:07:20.375Z,57.24
2019-02-08T02:10:34.539Z,58.14
2019-02-08T02:13:40.345Z,57.86
2019-02-08T02:16:46.098Z,57.68
2019-02-08T02:19:51.927Z,58.47
2019-02-08T02:22:57.917Z,58.47
2019-02-08T02:26:03.693Z,58.04
2019-02-08T02:29:09.461Z,58.61
2019-02-08T02:32:15.209Z,58.39
2019-02-08T02:35:21.181Z,58.00
2019-02-08T02:38:26.925Z,58.00
2019-02-08T02:41:32.770Z,58.50
2019-02-08T02:44:38.559Z,58.17
2019-02-08T02:47:44.416Z,58.12
2019-02-08T02:50:50.270Z,59.12
2019-02-08T02:54:04.468Z,58.93
2019-02-08T02:57:04.593Z,58.82
2019-02-08T03:00:14.619Z,60.36
2019-02-08T03:03:20.498Z,58.92
2019-02-08T03:06:26.354Z,58.71
2019-02-08T03:09:32.113Z,58.93
2019-02-08T03:12:37.898Z,58.93
2019-02-08T03:15:43.901Z,58.15
2019-02-08T03:18:49.662Z,58.34
2019-02-08T03:21:55.419Z,59.61
2019-02-08T03:25:01.185Z,58.62
2019-02-08T03:28:07.132Z,58.07
2019-02-08T03:31:12.921Z,58.33
2019-02-08T03:34:18.762Z,58.78
2019-02-08T03:37:24.518Z,57.96
2019-02-08T03:40:30.492Z,57.53
2019-02-08T03:43:36.235Z,57.84
2019-02-08T03:46:42.195Z,57.79
2019-02-08T03:49:48.046Z,57.36
2019-02-08T03:52:54.020Z,57.36
2019-02-08T03:55:59.854Z,59.12
2019-02-08T03:59:06.213Z,58.26
2019-02-08T04:02:11.979Z,59.23
2019-02-08T04:05:17.925Z,58.75
2019-02-08T04:08:23.683Z,58.40
2019-02-08T04:11:29.611Z,58.44
2019-02-08T04:14:35.589Z,58.94
2019-02-08T04:17:41.606Z,58.70
2019-02-08T04:20:47.384Z,59.28
2019-02-08T04:23:53.246Z,59.71
2019-02-08T04:26:59.022Z,59.70
2019-02-08T04:30:06.687Z,59.97
2019-02-08T04:33:12.631Z,59.59
2019-02-08T04:36:18.374Z,59.17
2019-02-08T04:39:24.151Z,58.67
2019-02-08T04:42:29.888Z,58.73
2019-02-08T04:45:35.847Z,59.19
2019-02-08T04:48:41.664Z,59.12
2019-02-08T04:51:47.492Z,58.63
2019-02-08T04:54:53.249Z,58.53
2019-02-08T04:57:59.014Z,58.50
2019-02-08T05:01:05.007Z,57.88
2019-02-08T05:04:10.865Z,57.34
2019-02-08T05:07:16.624Z,57.52
2019-02-08T05:10:25.294Z,57.32
2019-02-08T05:13:31.046Z,56.93
2019-02-08T05:16:36.792Z,57.51
2019-02-08T05:19:42.592Z,59.47
2019-02-08T05:22:48.578Z,58.33
2019-02-08T05:25:54.350Z,58.14
2019-02-08T05:29:00.124Z,58.99
2019-02-08T05:32:06.533Z,59.28
2019-02-08T05:35:12.708Z,58.85
2019-02-08T05:38:18.565Z,58.11
2019-02-08T05:41:24.467Z,59.55
2019-02-08T05:44:30.352Z,58.89
2019-02-08T05:47:36.244Z,58.41
2019-02-08T05:50:42.253Z,58.38
2019-02-08T05:53:48.009Z,59.06
2019-02-08T05:56:53.824Z,57.96
2019-02-08T05:59:59.581Z,57.23
2019-02-08T06:03:06.394Z,59.13
2019-02-08T06:06:12.359Z,58.29
2019-02-08T06:09:18.335Z,58.14
2019-02-08T06:12:24.098Z,59.09
2019-02-08T06:15:30.079Z,58.84
2019-02-08T06:18:35.851Z,58.92
2019-02-08T06:21:41.598Z,57.91
2019-02-08T06:24:47.364Z,59.69
2019-02-08T06:27:53.362Z,59.00
2019-02-08T06:30:59.162Z,59.37
2019-02-08T06:34:05.092Z,60.13
2019-02-08T06:37:10.891Z,60.28
2019-02-08T06:40:19.179Z,59.75
2019-02-08T06:43:24.934Z,59.62
2019-02-08T06:46:30.714Z,59.83
2019-02-08T06:49:36.475Z,59.61
2019-02-08T06:52:42.487Z,59.88
2019-02-08T06:55:48.268Z,59.21
2019-02-08T06:59:02.281Z,59.84
2019-02-08T07:02:22.812Z,59.44
2019-02-08T07:06:00.656Z,59.31
2019-02-08T07:09:29.238Z,58.95
2019-02-08T07:12:56.866Z,58.92
2019-02-08T07:16:24.714Z,58.08
2019-02-08T07:19:48.355Z,57.33
2019-02-08T07:23:12.807Z,57.30
2019-02-08T07:26:42.833Z,56.31
2019-02-08T07:30:16.643Z,55.89
2019-02-08T07:33:44.020Z,55.39
2019-02-08T07:37:09.338Z,55.13
2019-02-08T07:40:50.474Z,55.65
2019-02-08T07:44:14.095Z,55.88
2019-02-08T07:47:28.863Z,55.34
2019-02-08T07:50:39.627Z,55.34
2019-02-08T07:53:58.703Z,54.89
2019-02-08T07:57:22.549Z,54.57
2019-02-08T08:00:51.609Z,53.44
2019-02-08T08:04:02.605Z,52.91
2019-02-08T08:07:26.215Z,53.18
2019-02-08T08:10:44.992Z,52.72
2019-02-08T08:14:08.739Z,52.46
2019-02-08T08:17:32.379Z,52.79
2019-02-08T08:20:56.087Z,52.90
2019-02-08T08:24:16.181Z,52.58
2019-02-08T08:27:34.266Z,53.96
2019-02-08T08:31:05.522Z,52.91
2019-02-08T08:34:18.607Z,52.27
2019-02-08T08:37:58.016Z,51.69
2019-02-08T08:41:44.249Z,51.92
2019-02-08T08:45:27.842Z,52.67
2019-02-08T08:49:20.341Z,52.01
2019-02-08T08:53:19.107Z,50.86
2019-02-08T08:56:43.430Z,50.18
2019-02-08T09:00:44.278Z,50.34
2019-02-08T09:04:24.833Z,50.12
2019-02-08T09:08:06.887Z,50.52
2019-02-08T09:12:12.767Z,49.17
2019-02-08T09:16:04.460Z,48.96
2019-02-08T09:20:00.202Z,48.55
2019-02-08T09:23:46.700Z,47.91
2019-02-08T09:27:35.092Z,47.27
2019-02-08T09:31:20.857Z,47.09
2019-02-08T09:35:06.184Z,46.06
2019-02-08T09:38:50.771Z,45.00
2019-02-08T09:42:40.175Z,44.94
2019-02-08T09:46:38.471Z,44.63
2019-02-08T09:50:20.925Z,44.50
2019-02-08T09:54:08.654Z,44.43
2019-02-08T09:57:51.190Z,44.92
2019-02-08T10:01:32.536Z,44.76
2019-02-08T10:05:16.150Z,44.07
2019-02-08T10:09:20.888Z,43.54
2019-02-08T10:13:13.449Z,45.31
2019-02-08T10:17:00.273Z,45.83
2019-02-08T10:20:55.095Z,46.13
2019-02-08T10:24:36.429Z,46.46
2019-02-08T10:28:17.790Z,45.37
2019-02-08T10:32:17.522Z,45.40
2019-02-08T10:36:28.825Z,45.27
2019-02-08T10:40:17.915Z,46.76
2019-02-08T10:44:22.690Z,46.67
2019-02-08T10:48:15.168Z,46.64
2019-02-08T10:52:04.289Z,46.35
2019-02-08T10:55:48.928Z,46.45
2019-02-08T10:59:34.685Z,46.43
2019-02-08T11:03:41.482Z,46.59
2019-02-08T11:07:27.673Z,46.58
2019-02-08T11:11:11.586Z,46.18
2019-02-08T11:14:55.354Z,44.93
2019-02-08T11:18:38.338Z,43.80
2019-02-08T11:21:44.273Z,44.50
2019-02-08T11:24:50.237Z,43.85
2019-02-08T11:27:56.261Z,43.82
2019-02-08T11:31:02.086Z,44.25
2019-02-08T11:34:08.323Z,44.15
2019-02-08T11:37:14.545Z,43.31
2019-02-08T11:40:25.332Z,43.49
2019-02-08T11:43:31.537Z,42.73
2019-02-08T11:46:37.652Z,42.37
2019-02-08T11:49:43.533Z,42.46
2019-02-08T11:52:49.350Z,42.28
2019-02-08T11:55:55.217Z,42.69
2019-02-08T11:59:00.999Z,42.20
2019-02-08T12:02:07.169Z,42.08
2019-02-08T12:05:13.784Z,42.49
2019-02-08T12:08:19.675Z,42.08
2019-02-08T12:11:25.449Z,41.50
2019-02-08T12:14:31.450Z,42.38
2019-02-08T12:17:37.236Z,43.32
2019-02-08T12:20:43.127Z,42.97
2019-02-08T12:23:49.008Z,42.73
2019-02-08T12:26:54.778Z,43.07
2019-02-08T12:30:00.555Z,44.16
2019-02-08T12:33:06.911Z,43.44
2019-02-08T12:36:12.875Z,43.51
2019-02-08T12:39:18.761Z,43.11
2019-02-08T12:42:24.542Z,43.59
2019-02-08T12:45:31.620Z,43.59
2019-02-08T12:48:37.396Z,44.02
2019-02-08T12:51:43.250Z,43.52
2019-02-08T12:54:49.024Z,43.08
2019-02-08T12:57:54.781Z,44.56
2019-02-08T13:01:00.759Z,44.08
2019-02-08T13:04:07.950Z,44.11
2019-02-08T13:07:13.825Z,43.78
2019-02-08T13:10:22.012Z,44.15
2019-02-08T13:13:27.846Z,43.94
2019-02-08T13:16:33.607Z,43.71
2019-02-08T13:19:39.405Z,43.65
2019-02-08T13:22:45.328Z,43.84
2019-02-08T13:25:51.243Z,44.10
2019-02-08T13:28:57.026Z,44.55
2019-02-08T13:32:02.917Z,43.69
2019-02-08T13:35:09.030Z,43.54
2019-02-08T13:38:14.854Z,43.50
2019-02-08T13:41:20.635Z,43.65
2019-02-08T13:44:26.632Z,43.81
2019-02-08T13:47:32.531Z,43.95
2019-02-08T13:50:38.429Z,43.97
2019-02-08T13:53:44.231Z,44.19
2019-02-08T13:56:50.014Z,44.22
2019-02-08T13:59:55.817Z,44.38
2019-02-08T14:03:01.864Z,44.60
2019-02-08T14:06:08.187Z,44.52
2019-02-08T14:09:14.193Z,44.47
2019-02-08T14:12:19.968Z,45.10
2019-02-08T14:15:26.459Z,45.57
2019-02-08T14:18:32.244Z,45.60
2019-02-08T14:21:38.023Z,45.67
2019-02-08T14:24:44.155Z,46.79
2019-02-08T14:27:50.613Z,46.28
2019-02-08T14:30:56.480Z,46.33
2019-02-08T14:34:02.253Z,46.88
2019-02-08T14:37:08.307Z,46.43
2019-02-08T14:40:17.297Z,46.30
2019-02-08T14:43:23.089Z,46.30
2019-02-08T14:46:28.836Z,46.34
2019-02-08T14:49:34.721Z,47.14
2019-02-08T14:52:40.592Z,47.60
2019-02-08T14:55:46.455Z,47.43
2019-02-08T14:58:52.304Z,47.80
2019-02-08T15:01:58.156Z,47.56
2019-02-08T15:05:04.918Z,47.47
2019-02-08T15:08:10.715Z,47.17
2019-02-08T15:11:16.530Z,47.19
2019-02-08T15:14:22.303Z,47.58
2019-02-08T15:17:28.123Z,47.84
2019-02-08T15:20:34.126Z,48.35
2019-02-08T15:23:40.008Z,49.02
2019-02-08T15:26:45.741Z,49.35
2019-02-08T15:29:51.530Z,49.62
2019-02-08T15:32:57.308Z,49.49
2019-02-08T15:36:03.191Z,49.29
2019-02-08T15:39:12.140Z,49.33
2019-02-08T15:42:18.024Z,49.23
2019-02-08T15:45:23.957Z,49.03
2019-02-08T15:48:29.823Z,49.17
2019-02-08T15:51:35.841Z,49.85
2019-02-08T15:54:42.609Z,51.09
2019-02-08T15:57:48.447Z,50.59
2019-02-08T16:00:54.427Z,50.26
2019-02-08T16:04:00.210Z,50.41
2019-02-08T16:07:06.224Z,50.74
2019-02-08T16:10:12.412Z,50.22
2019-02-08T16:13:18.266Z,50.39
2019-02-08T16:16:25.549Z,50.02
2019-02-08T16:19:31.656Z,51.95
2019-02-08T16:22:37.680Z,52.03
2019-02-08T16:25:43.550Z,51.83
2019-02-08T16:28:49.362Z,51.11
2019-02-08T16:31:55.139Z,51.34
2019-02-08T16:35:01.044Z,51.04
2019-02-08T16:38:07.475Z,51.31
2019-02-08T16:41:13.421Z,51.00
2019-02-08T16:44:19.390Z,51.68
2019-02-08T16:47:25.177Z,52.21
2019-02-08T16:50:31.972Z,51.38
2019-02-08T16:53:37.793Z,51.69
2019-02-08T16:56:43.556Z,51.28
2019-02-08T16:59:49.333Z,51.17
2019-02-08T17:02:55.981Z,50.95
2019-02-08T17:06:01.810Z,51.39
2019-02-08T17:09:12.678Z,51.15
2019-02-08T17:12:18.559Z,50.55
2019-02-08T17:15:25.691Z,50.65
2019-02-08T17:18:31.445Z,51.94
2019-02-08T17:21:37.241Z,51.14
2019-02-08T17:24:43.096Z,50.38
2019-02-08T17:27:55.160Z,50.73
2019-02-08T17:30:56.784Z,50.77
2019-02-08T17:34:02.573Z,50.57
2019-02-08T17:37:08.506Z,51.65
2019-02-08T17:40:17.159Z,51.23
2019-02-08T17:43:23.081Z,50.60
2019-02-08T17:46:28.848Z,51.79
2019-02-08T17:49:34.614Z,51.51
2019-02-08T17:52:40.587Z,51.41
2019-02-08T17:55:46.525Z,50.86
2019-02-08T17:58:52.265Z,50.14
2019-02-08T18:01:58.162Z,49.92
2019-02-08T18:05:04.479Z,49.70
2019-02-08T18:08:11.581Z,49.63
2019-02-08T18:11:17.449Z,49.41
2019-02-08T18:14:23.351Z,49.29
2019-02-08T18:17:29.151Z,48.88
2019-02-08T18:20:37.225Z,48.89
2019-02-08T18:23:43.076Z,48.79
2019-02-08T18:26:48.888Z,48.71
2019-02-08T18:29:54.659Z,49.06
2019-02-08T18:33:00.428Z,49.45
2019-02-08T18:36:06.551Z,49.95
2019-02-08T18:39:12.549Z,49.84
2019-02-08T18:42:18.706Z,49.67
2019-02-08T18:45:26.312Z,49.64
2019-02-08T18:48:32.128Z,49.71
2019-02-08T18:51:38.030Z,49.78
2019-02-08T18:54:43.824Z,50.47
2019-02-08T18:57:49.873Z,51.00
2019-02-08T19:00:55.834Z,52.11
2019-02-08T19:04:01.617Z,53.20
2019-02-08T19:07:07.603Z,53.42
2019-02-08T19:10:15.955Z,53.99
2019-02-08T19:13:21.749Z,53.45
2019-02-08T19:16:27.739Z,54.35
2019-02-08T19:19:33.504Z,54.25
2019-02-08T19:22:39.598Z,53.90
2019-02-08T19:25:45.998Z,53.49
2019-02-08T19:28:51.791Z,53.20
2019-02-08T19:31:57.790Z,53.53
2019-02-08T19:35:03.663Z,53.67
2019-02-08T19:38:09.836Z,53.96
2019-02-08T19:41:15.628Z,53.85
2019-02-08T19:44:21.532Z,54.99
2019-02-08T19:47:27.447Z,54.13
2019-02-08T19:50:35.644Z,53.71
2019-02-08T19:53:43.743Z,54.14
2019-02-08T19:56:49.613Z,54.12
2019-02-08T19:59:55.407Z,53.74
2019-02-08T20:03:01.553Z,53.79
2019-02-08T20:06:08.929Z,54.41
2019-02-08T20:09:19.241Z,54.63
2019-02-08T20:12:25.147Z,53.91
2019-02-08T20:15:31.534Z,53.59
2019-02-08T20:18:37.374Z,55.20
2019-02-08T20:21:43.197Z,53.77
2019-02-08T20:24:48.938Z,53.62
2019-02-08T20:27:54.820Z,54.92
2019-02-08T20:31:00.819Z,55.41
2019-02-08T20:34:06.727Z,56.57
2019-02-08T20:37:12.616Z,56.16
2019-02-08T20:40:21.355Z,56.80
2019-02-08T20:43:28.269Z,56.92
2019-02-08T20:46:34.103Z,56.94
2019-02-08T20:49:39.955Z,56.78
2019-02-08T20:52:47.794Z,57.48
2019-02-08T20:55:54.039Z,57.65
2019-02-08T20:58:59.931Z,57.71
2019-02-08T21:02:05.856Z,57.62
2019-02-08T21:05:11.943Z,57.42
2019-02-08T21:08:19.283Z,56.73
2019-02-08T21:11:25.220Z,57.42
2019-02-08T21:14:31.129Z,57.87
2019-02-08T21:17:36.988Z,56.72
2019-02-08T21:20:44.585Z,56.21
2019-02-08T21:23:50.343Z,57.06
2019-02-08T21:26:56.207Z,55.97
2019-02-08T21:30:01.983Z,56.29
2019-02-08T21:33:09.787Z,55.27
2019-02-08T21:36:15.644Z,56.12
2019-02-08T21:39:21.717Z,55.65
2019-02-08T21:42:27.522Z,55.99
2019-02-08T21:45:34.743Z,55.29
2019-02-08T21:48:40.610Z,55.47
2019-02-08T21:51:46.788Z,55.01
2019-02-08T21:54:52.558Z,54.78
2019-02-08T21:57:58.547Z,55.54
2019-02-08T22:01:05.480Z,55.04
2019-02-08T22:04:12.643Z,55.31
2019-02-08T22:07:20.087Z,55.89
2019-02-08T22:10:26.042Z,55.61
2019-02-08T22:13:32.450Z,55.59
2019-02-08T22:16:38.439Z,54.57
2019-02-08T22:19:44.216Z,54.64
2019-02-08T22:22:51.665Z,54.57
2019-02-08T22:25:57.545Z,54.86
2019-02-08T22:29:03.322Z,55.39
2019-02-08T22:32:09.195Z,55.08
2019-02-08T22:35:15.869Z,54.52
2019-02-08T22:38:21.760Z,54.88
2019-02-08T22:41:27.514Z,54.31
2019-02-08T22:44:33.338Z,54.86
2019-02-08T22:47:39.134Z,54.72
2019-02-08T22:50:45.193Z,54.45
2019-02-08T22:53:51.068Z,54.58
2019-02-08T22:56:56.941Z,54.47
2019-02-08T23:00:02.895Z,54.51
2019-02-08T23:03:12.516Z,54.63
2019-02-08T23:06:18.397Z,53.22
2019-02-08T23:09:25.165Z,53.45
2019-02-08T23:12:31.131Z,53.13
2019-02-08T23:15:37.593Z,53.31
2019-02-08T23:18:43.681Z,52.90
2019-02-08T23:21:49.645Z,53.92
2019-02-08T23:24:55.544Z,53.30
2019-02-08T23:28:01.331Z,52.87
2019-02-08T23:31:07.705Z,53.31
2019-02-08T23:34:13.495Z,53.24
2019-02-08T23:37:25.841Z,53.70
2019-02-08T23:40:26.819Z,52.88
2019-02-08T23:43:33.404Z,52.60
2019-02-08T23:46:39.373Z,52.52
2019-02-08T23:49:45.147Z,52.53
2019-02-08T23:52:51.143Z,52.78
2019-02-08T23:55:57.221Z,52.85
2019-02-08T23:59:03.011Z,52.87
